createdAt,value
2019-02-02T00:04:38.136Z,27.97
2019-02-02T00:09:55.122Z,28.63
2019-02-02T00:15:12.830Z,26.03
2019-02-02T00:20:30.324Z,22.57
2019-02-02T00:25:47.650Z,29.17
2019-02-02T00:31:04.541Z,28.17
2019-02-02T00:36:22.330Z,26.07
2019-02-02T00:41:39.244Z,30.00
2019-02-02T00:46:56.347Z,32.43
2019-02-02T00:52:13.268Z,30.17
2019-02-02T00:57:30.461Z,27.17
2019-02-02T01:02:47.451Z,29.67
2019-02-02T01:08:04.532Z,29.13
2019-02-02T01:13:21.692Z,29.87
2019-02-02T01:18:38.755Z,35.60
2019-02-02T01:23:55.805Z,29.60
2019-02-02T01:29:13.631Z,36.20
2019-02-02T01:34:30.994Z,36.93
2019-02-02T01:39:48.060Z,39.07
2019-02-02T01:45:05.146Z,32.53
2019-02-02T01:50:22.436Z,30.43
2019-02-02T01:55:39.940Z,29.30
2019-02-02T02:00:56.808Z,26.97
2019-02-02T02:06:13.892Z,28.83
2019-02-02T02:11:30.948Z,34.70
2019-02-02T02:16:47.717Z,35.77
2019-02-02T02:22:05.089Z,34.83
2019-02-02T02:27:22.100Z,33.43
2019-02-02T02:32:39.604Z,25.93
2019-02-02T02:37:56.302Z,33.60
2019-02-02T02:43:13.698Z,41.67
2019-02-02T02:48:30.429Z,37.70
2019-02-02T02:53:48.087Z,32.37
2019-02-02T02:59:05.368Z,36.80
2019-02-02T03:04:22.217Z,32.80
2019-02-02T03:09:39.792Z,33.83
2019-02-02T03:14:57.263Z,37.23
2019-02-02T03:20:14.386Z,32.53
2019-02-02T03:25:31.242Z,32.63
2019-02-02T03:30:48.586Z,33.07
2019-02-02T03:36:05.447Z,36.90
2019-02-02T03:41:22.845Z,33.00
2019-02-02T03:46:39.602Z,33.33
2019-02-02T03:51:57.098Z,35.43
2019-02-02T03:57:14.124Z,32.70
2019-02-02T04:02:31.255Z,44.80
2019-02-02T04:07:48.077Z,35.93
2019-02-02T04:13:05.489Z,35.43
2019-02-02T04:18:22.426Z,33.83
2019-02-02T04:23:39.654Z,32.70
2019-02-02T04:28:56.737Z,42.47
2019-02-02T04:34:13.633Z,35.77
2019-02-02T04:39:30.475Z,33.97
2019-02-02T04:44:47.642Z,38.73
2019-02-02T04:50:04.900Z,32.77
2019-02-02T04:55:21.589Z,30.40
2019-02-02T05:00:38.284Z,37.67
2019-02-02T05:05:55.486Z,33.57
2019-02-02T05:11:12.391Z,30.73
2019-02-02T05:16:30.388Z,28.67
2019-02-02T05:21:47.973Z,32.40
2019-02-02T05:27:05.261Z,29.77
2019-02-02T05:32:22.101Z,24.23
2019-02-02T05:37:39.518Z,28.10
2019-02-02T05:42:56.691Z,27.33
2019-02-02T05:48:13.585Z,28.30
2019-02-02T05:53:31.099Z,26.93
2019-02-02T05:58:48.465Z,24.70
2019-02-02T06:04:05.861Z,25.60
2019-02-02T06:09:23.003Z,27.37
2019-02-02T06:14:40.367Z,34.87
2019-02-02T06:19:57.635Z,32.27
2019-02-02T06:25:15.437Z,31.93
2019-02-02T06:30:32.822Z,37.53
2019-02-02T06:35:50.227Z,39.20
2019-02-02T06:41:07.264Z,32.37
2019-02-02T06:46:24.607Z,37.93
2019-02-02T06:51:42.097Z,37.80
2019-02-02T06:56:59.091Z,43.37
2019-02-02T07:02:16.123Z,45.13
2019-02-02T07:07:33.850Z,35.67
2019-02-02T07:12:51.589Z,41.80
2019-02-02T07:18:09.218Z,44.50
2019-02-02T07:23:26.493Z,37.40
2019-02-02T07:28:43.442Z,47.43
2019-02-02T07:34:00.853Z,46.33
2019-02-02T07:39:17.957Z,48.75
2019-02-02T07:44:35.044Z,46.55
2019-02-02T07:49:51.614Z,45.33
2019-02-02T07:55:09.042Z,48.05
2019-02-02T08:00:26.306Z,44.67
2019-02-02T08:05:43.391Z,45.03
2019-02-02T08:11:00.770Z,37.77
2019-02-02T08:16:18.358Z,37.90
2019-02-02T08:21:35.522Z,37.77
2019-02-02T08:26:52.742Z,46.57
2019-02-02T08:32:09.780Z,52.70
2019-02-02T08:37:27.430Z,43.63
2019-02-02T08:42:44.702Z,49.87
2019-02-02T08:48:02.164Z,34.47
2019-02-02T08:53:19.814Z,33.83
2019-02-02T08:58:36.744Z,35.50
2019-02-02T09:03:53.789Z,34.33
2019-02-02T09:09:10.771Z,37.47
2019-02-02T09:14:27.951Z,35.17
2019-02-02T09:19:45.600Z,34.50
2019-02-02T09:25:02.458Z,42.37
2019-02-02T09:30:19.523Z,35.33
2019-02-02T09:35:36.800Z,34.40
2019-02-02T09:40:53.660Z,38.80
2019-02-02T09:46:10.570Z,29.50
2019-02-02T09:51:28.167Z,39.60
2019-02-02T09:56:45.204Z,34.37
2019-02-02T10:02:02.354Z,36.83
2019-02-02T10:07:19.214Z,31.50
2019-02-02T10:12:36.442Z,33.27
2019-02-02T10:17:53.702Z,30.33
2019-02-02T10:23:10.711Z,30.50
2019-02-02T10:28:28.130Z,30.27
2019-02-02T10:33:45.086Z,37.43
2019-02-02T10:39:01.937Z,32.23
2019-02-02T10:44:18.975Z,32.97
2019-02-02T10:49:36.545Z,30.40
2019-02-02T10:54:53.959Z,27.83
2019-02-02T11:00:11.026Z,26.67
2019-02-02T11:05:27.991Z,30.43
2019-02-02T11:10:45.714Z,25.50
2019-02-02T11:16:03.433Z,25.80
2019-02-02T11:21:21.120Z,27.37
2019-02-02T11:26:38.790Z,24.13
2019-02-02T11:32:02.865Z,25.80
2019-02-02T11:37:15.554Z,17.37
2019-02-02T11:42:33.024Z,26.33
2019-02-02T11:47:49.938Z,19.70
2019-02-02T11:53:07.258Z,23.43
2019-02-02T11:58:24.886Z,15.27
2019-02-02T12:03:41.914Z,22.00
2019-02-02T12:08:58.903Z,17.97
2019-02-02T12:14:16.140Z,19.50
2019-02-02T12:19:33.514Z,19.87
2019-02-02T12:24:50.419Z,17.57
2019-02-02T12:30:07.472Z,14.20
2019-02-02T12:35:24.769Z,18.07
2019-02-02T12:40:42.018Z,15.93
2019-02-02T12:45:59.085Z,17.00
2019-02-02T12:51:16.630Z,13.77
2019-02-02T12:56:34.162Z,18.60
2019-02-02T13:01:51.248Z,15.13
2019-02-02T13:07:08.557Z,20.77
2019-02-02T13:12:26.038Z,14.67
2019-02-02T13:17:43.311Z,19.27
2019-02-02T13:23:00.294Z,14.77
2019-02-02T13:28:17.670Z,18.37
2019-02-02T13:33:34.472Z,11.57
2019-02-02T13:38:51.431Z,14.93
2019-02-02T13:44:08.798Z,15.17
2019-02-02T13:49:26.010Z,14.37
2019-02-02T13:54:43.257Z,14.83
2019-02-02T14:00:00.000Z,18.73
2019-02-02T14:05:16.916Z,12.63
2019-02-02T14:10:34.332Z,20.20
2019-02-02T14:15:51.654Z,16.77
2019-02-02T14:21:09.099Z,15.70
2019-02-02T14:26:26.390Z,13.97
2019-02-02T14:31:43.675Z,14.17
2019-02-02T14:37:00.753Z,18.97
2019-02-02T14:42:18.465Z,16.93
2019-02-02T14:47:35.565Z,10.93
2019-02-02T14:52:52.586Z,16.70
2019-02-02T14:58:09.702Z,16.63
2019-02-02T15:03:26.760Z,10.73
2019-02-02T15:08:44.995Z,12.10
2019-02-02T15:14:02.642Z,11.77
2019-02-02T15:19:19.771Z,20.03
2019-02-02T15:24:37.160Z,10.00
2019-02-02T15:29:54.879Z,12.97
2019-02-02T15:35:14.174Z,8.70
2019-02-02T15:40:31.662Z,14.67
2019-02-02T15:45:48.611Z,10.67
2019-02-02T15:51:06.251Z,15.27
2019-02-02T15:56:23.119Z,12.63
2019-02-02T16:01:39.868Z,14.13
2019-02-02T16:06:57.535Z,8.77
2019-02-02T16:12:14.385Z,9.63
2019-02-02T16:17:31.567Z,10.10
2019-02-02T16:22:49.211Z,11.20
2019-02-02T16:28:06.890Z,10.23
2019-02-02T16:33:24.004Z,7.07
2019-02-02T16:38:41.667Z,12.33
2019-02-02T16:43:59.285Z,10.60
2019-02-02T16:49:16.707Z,10.87
2019-02-02T16:54:34.069Z,7.33
2019-02-02T16:59:51.361Z,6.90
2019-02-02T17:05:09.057Z,5.40
2019-02-02T17:10:26.639Z,10.87
2019-02-02T17:15:43.349Z,10.53
2019-02-02T17:21:00.412Z,7.53
2019-02-02T17:26:17.770Z,11.50
2019-02-02T17:31:35.268Z,7.23
2019-02-02T17:36:52.713Z,7.53
2019-02-02T17:42:10.003Z,10.33
2019-02-02T17:47:26.816Z,8.90
2019-02-02T17:52:44.401Z,9.97
2019-02-02T17:58:02.781Z,7.87
2019-02-02T18:03:19.890Z,8.63
2019-02-02T18:08:36.848Z,10.00
2019-02-02T18:13:53.853Z,15.03
2019-02-02T18:19:11.072Z,9.03
2019-02-02T18:24:29.614Z,9.83
2019-02-02T18:29:46.862Z,10.40
2019-02-02T18:35:04.076Z,11.75
2019-02-02T18:40:21.300Z,9.15
2019-02-02T18:45:38.519Z,9.83
2019-02-02T18:50:55.917Z,10.53
2019-02-02T18:56:13.183Z,9.93
2019-02-02T19:01:30.104Z,10.03
2019-02-02T19:06:47.250Z,8.43
2019-02-02T19:12:04.300Z,10.33
2019-02-02T19:17:21.558Z,10.57
2019-02-02T19:22:38.718Z,14.67
2019-02-02T19:27:55.890Z,24.80
2019-02-02T19:33:13.343Z,22.20
2019-02-02T19:38:30.415Z,18.03
2019-02-02T19:43:48.070Z,15.53
2019-02-02T19:49:05.666Z,18.33
2019-02-02T19:54:22.686Z,27.03
2019-02-02T19:59:40.097Z,22.45
2019-02-02T20:04:57.708Z,21.40
2019-02-02T20:10:14.594Z,22.77
2019-02-02T20:15:31.794Z,25.27
2019-02-02T20:20:48.866Z,31.43
2019-02-02T20:26:06.156Z,22.70
2019-02-02T20:31:23.114Z,24.07
2019-02-02T20:36:40.257Z,24.83
2019-02-02T20:41:59.843Z,22.87
2019-02-02T20:47:16.308Z,18.13
2019-02-02T20:52:33.364Z,18.87
2019-02-02T20:57:50.648Z,18.73
2019-02-02T21:03:08.306Z,18.35
2019-02-02T21:08:25.590Z,16.15
2019-02-02T21:13:43.129Z,14.97
2019-02-02T21:19:00.013Z,18.87
2019-02-02T21:24:17.291Z,16.20
2019-02-02T21:29:34.842Z,21.23
2019-02-02T21:34:51.817Z,15.20
2019-02-02T21:40:08.675Z,15.77
2019-02-02T21:45:25.982Z,13.77
2019-02-02T21:50:43.738Z,12.47
2019-02-02T21:56:01.015Z,18.17
2019-02-02T22:01:24.148Z,20.00
2019-02-02T22:06:36.679Z,19.37
2019-02-02T22:11:53.977Z,19.73
2019-02-02T22:17:11.157Z,22.73
2019-02-02T22:22:28.777Z,16.97
2019-02-02T22:27:45.763Z,17.83
2019-02-02T22:33:02.735Z,15.13
2019-02-02T22:38:19.702Z,16.00
2019-02-02T22:43:36.928Z,16.07
2019-02-02T22:48:54.310Z,17.67
2019-02-02T22:54:11.383Z,19.03
2019-02-02T22:59:28.467Z,13.67
2019-02-02T23:04:45.635Z,14.47
2019-02-02T23:10:02.642Z,13.80
2019-02-02T23:15:19.954Z,16.03
2019-02-02T23:20:37.004Z,15.58
2019-02-02T23:25:54.511Z,16.32
2019-02-02T23:31:11.554Z,12.60
2019-02-02T23:36:29.454Z,17.70
2019-02-02T23:41:46.620Z,16.90
2019-02-02T23:47:03.937Z,16.02
2019-02-02T23:52:21.167Z,19.67
2019-02-02T23:57:38.774Z,13.10
